Terminal Aerodrome Forecast
Issued by NWS

Home | Current Version | Previous Version | Text Only | Print | Product List | Glossary On
Versions: 1 2 3 4 5 6 7 8 9 10 11 12 13 14 15 16 17
000
FTUS44 KCRP 242334
TAFALI
TAF
KALI 242334Z 2500/2524 16011KT P6SM FEW024
     FM250500 16011KT P6SM BKN014
     FM251400 17015KT P6SM SCT015 BKN025
     FM251700 15015G20KT P6SM VCTS SCT028CB BKN040 PROB30 2517/2523
      VRB25G35KT 3SM TSRA BR BKN025CB=

USA.gov is the U.S. government's official web portal to all federal, state and local government web resources and services.